Terminal Aerodrome Forecast
Issued by NWS Charleston, WV

Current Version | Previous Version | Text Only | Print | Product List | Glossary Off
Versions: 1 2 3 4 5 6 7 8 9 10 11 12 13 14 15 16 17 18 19 20 21

000
FTUS41 KRLX 301700
TAFCRW
TAF
KCRW 301740Z 3018/0118 30004KT P6SM FEW035 SCT250
     FM302300 00000KT P6SM BKN250
     FM010800 00000KT P6SM BKN010
     FM011500 00000KT 6SM BR SCT008=

USA.gov is the U.S. government's official web portal to all federal, state and local government web resources and services.